createdAt,value
2022-10-12T00:02:11.931Z,10.01
2022-10-12T00:04:53.477Z,9.99
2022-10-12T00:07:23.080Z,9.97
2022-10-12T00:09:58.370Z,10.01
2022-10-12T00:12:39.984Z,10.00
2022-10-12T00:15:15.106Z,10.00
2022-10-12T00:17:59.503Z,10.03
2022-10-12T00:20:37.949Z,10.04
2022-10-12T00:23:22.629Z,10.06
2022-10-12T00:25:52.262Z,10.07
2022-10-12T00:28:39.698Z,10.02
2022-10-12T00:31:28.259Z,10.10
2022-10-12T00:33:55.847Z,10.15
2022-10-12T00:36:32.675Z,10.18
2022-10-12T00:39:14.837Z,10.21
2022-10-12T00:41:53.347Z,10.25
2022-10-12T00:44:45.082Z,10.28
2022-10-12T00:47:51.033Z,10.28
2022-10-12T00:50:34.519Z,10.29
2022-10-12T00:53:17.948Z,10.33
2022-10-12T00:55:59.034Z,10.39
2022-10-12T00:58:41.026Z,10.32
2022-10-12T01:01:14.356Z,10.34
2022-10-12T01:04:00.642Z,10.37
2022-10-12T01:06:39.546Z,10.37
2022-10-12T01:09:07.192Z,10.37
2022-10-12T01:11:43.212Z,10.41
2022-10-12T01:14:14.293Z,10.40
2022-10-12T01:17:16.356Z,10.39
2022-10-12T01:19:58.948Z,10.43
2022-10-12T01:22:52.789Z,10.47
2022-10-12T01:26:02.053Z,10.47
2022-10-12T01:28:38.042Z,10.47
2022-10-12T01:31:20.018Z,10.52
2022-10-12T01:34:23.031Z,10.52
2022-10-12T01:37:00.057Z,10.58
2022-10-12T01:39:52.933Z,10.58
2022-10-12T01:42:36.911Z,10.61
2022-10-12T01:45:12.134Z,10.62
2022-10-12T01:47:41.440Z,10.66
2022-10-12T01:50:29.031Z,10.75
2022-10-12T01:53:16.873Z,10.74
2022-10-12T01:56:07.430Z,10.68
2022-10-12T01:59:11.883Z,10.65
2022-10-12T02:01:54.168Z,10.66
2022-10-12T02:04:50.550Z,10.62
2022-10-12T02:07:39.904Z,10.59
2022-10-12T02:10:19.792Z,10.56
2022-10-12T02:12:56.398Z,10.51
2022-10-12T02:15:39.627Z,10.37
2022-10-12T02:18:22.772Z,10.29
2022-10-12T02:21:02.137Z,10.19
2022-10-12T02:23:30.256Z,10.11
2022-10-12T02:26:03.323Z,10.02
2022-10-12T02:28:37.600Z,9.95
2022-10-12T02:31:21.751Z,9.88
2022-10-12T02:34:00.988Z,9.74
2022-10-12T02:37:05.218Z,9.70
2022-10-12T02:39:47.504Z,9.66
2022-10-12T02:42:27.485Z,9.56
2022-10-12T02:45:07.281Z,9.51
2022-10-12T02:47:50.844Z,9.45
2022-10-12T02:50:28.078Z,9.41
2022-10-12T02:53:06.647Z,9.37
2022-10-12T02:55:41.687Z,9.31
2022-10-12T02:58:24.867Z,9.25
2022-10-12T03:01:08.131Z,9.18
2022-10-12T03:03:39.433Z,9.16
2022-10-12T03:06:20.864Z,9.11
2022-10-12T03:09:01.729Z,9.06
2022-10-12T03:11:44.752Z,9.05
2022-10-12T03:14:28.683Z,9.01
2022-10-12T03:17:04.232Z,8.95
2022-10-12T03:19:40.041Z,8.94
2022-10-12T03:22:08.513Z,8.93
2022-10-12T03:24:55.385Z,8.91
2022-10-12T03:27:38.656Z,8.84
2022-10-12T03:30:17.797Z,8.87
2022-10-12T03:32:56.959Z,8.86
2022-10-12T03:35:37.988Z,8.86
2022-10-12T03:38:07.730Z,8.89
2022-10-12T03:40:53.928Z,8.91
2022-10-12T03:43:32.261Z,8.94
2022-10-12T03:46:02.519Z,8.98
2022-10-12T03:48:38.633Z,9.02
2022-10-12T03:51:24.643Z,9.02
2022-10-12T03:54:00.903Z,9.03
2022-10-12T03:56:41.874Z,9.03
2022-10-12T03:59:20.190Z,9.04
2022-10-12T04:02:01.601Z,9.05
2022-10-12T04:04:41.863Z,9.04
2022-10-12T04:07:16.237Z,9.04
2022-10-12T04:09:57.022Z,9.02
2022-10-12T04:12:38.339Z,9.09
2022-10-12T04:15:14.667Z,9.13
2022-10-12T04:18:00.726Z,9.02
2022-10-12T04:20:43.011Z,9.06
2022-10-12T04:23:29.306Z,9.05
2022-10-12T04:26:05.984Z,9.05
2022-10-12T04:28:46.817Z,9.04
2022-10-12T04:31:26.165Z,8.97
2022-10-12T04:34:04.454Z,8.96
2022-10-12T04:36:42.570Z,8.96
2022-10-12T04:39:19.736Z,8.88
2022-10-12T04:41:59.304Z,8.86
2022-10-12T04:44:42.406Z,8.78
2022-10-12T04:47:19.997Z,8.74
2022-10-12T04:50:05.900Z,8.70
2022-10-12T04:52:38.640Z,8.67
2022-10-12T04:55:22.942Z,8.65
2022-10-12T04:57:59.108Z,8.66
2022-10-12T05:00:32.094Z,8.65
2022-10-12T05:03:08.307Z,8.57
2022-10-12T05:05:43.162Z,8.66
2022-10-12T05:08:24.465Z,8.63
2022-10-12T05:11:03.101Z,8.60
2022-10-12T05:13:46.723Z,8.58
2022-10-12T05:16:17.547Z,8.55
2022-10-12T05:18:47.364Z,8.56
2022-10-12T05:21:25.453Z,8.55
2022-10-12T05:24:07.319Z,8.57
2022-10-12T05:26:59.841Z,8.61
2022-10-12T05:29:39.960Z,8.60
2022-10-12T05:32:14.840Z,8.62
2022-10-12T05:34:58.375Z,8.63
2022-10-12T05:37:36.765Z,8.64
2022-10-12T05:40:10.625Z,8.65
2022-10-12T05:42:47.739Z,8.67
2022-10-12T05:45:24.099Z,8.73
2022-10-12T05:48:04.562Z,8.73
2022-10-12T05:50:42.484Z,8.72
2022-10-12T05:53:29.516Z,8.77
2022-10-12T05:56:05.743Z,8.93
2022-10-12T05:58:40.440Z,9.09
2022-10-12T06:04:12.350Z,9.39
2022-10-12T06:06:44.476Z,9.51
2022-10-12T06:09:19.811Z,9.60
2022-10-12T06:12:00.207Z,9.70
2022-10-12T06:14:32.574Z,9.82
2022-10-12T06:17:15.655Z,9.97
2022-10-12T06:19:55.181Z,10.05
2022-10-12T06:22:36.032Z,10.24
2022-10-12T06:25:13.921Z,10.49
2022-10-12T06:27:56.947Z,10.63
2022-10-12T06:30:33.019Z,10.74
2022-10-12T06:33:14.612Z,10.86
2022-10-12T06:38:59.685Z,11.14
2022-10-12T06:44:33.151Z,11.21
2022-10-12T06:47:18.763Z,11.28
2022-10-12T06:50:04.898Z,11.33
2022-10-12T06:52:48.275Z,11.41
2022-10-12T06:55:23.265Z,11.45
2022-10-12T06:57:56.145Z,11.59
2022-10-12T07:00:37.123Z,11.66
2022-10-12T07:03:29.743Z,11.78
2022-10-12T07:06:12.906Z,11.89
2022-10-12T07:08:53.494Z,12.05
2022-10-12T07:11:35.032Z,12.29
2022-10-12T07:14:07.642Z,12.55
2022-10-12T07:16:52.890Z,12.76
2022-10-12T07:19:29.807Z,12.97
2022-10-12T07:22:14.636Z,13.16
2022-10-12T07:24:49.803Z,13.35
2022-10-12T07:27:25.745Z,13.53
2022-10-12T07:29:56.177Z,13.66
2022-10-12T07:32:28.933Z,13.96
2022-10-12T07:34:56.116Z,14.18
2022-10-12T07:37:39.394Z,14.49
2022-10-12T07:40:15.674Z,14.65
2022-10-12T07:43:14.336Z,14.88
2022-10-12T07:45:48.059Z,15.08
2022-10-12T07:48:25.995Z,15.22
2022-10-12T07:51:09.402Z,15.38
2022-10-12T07:53:48.183Z,15.43
2022-10-12T07:56:29.092Z,15.50
2022-10-12T07:59:04.853Z,15.58
2022-10-12T08:01:39.978Z,15.51
2022-10-12T08:04:13.265Z,15.59
2022-10-12T08:06:51.185Z,15.78
2022-10-12T08:09:35.768Z,15.91
2022-10-12T08:12:15.481Z,16.07
2022-10-12T08:14:53.801Z,16.16
2022-10-12T08:17:36.498Z,16.22
2022-10-12T08:20:21.007Z,16.32
2022-10-12T08:22:59.494Z,16.42
2022-10-12T08:25:39.503Z,16.44
2022-10-12T08:28:14.873Z,16.37
2022-10-12T08:30:52.755Z,16.32
2022-10-12T08:33:29.085Z,16.41
2022-10-12T08:36:04.543Z,16.54
2022-10-12T08:38:52.955Z,16.51
2022-10-12T08:41:35.619Z,16.49
2022-10-12T08:44:45.158Z,16.58
2022-10-12T08:47:45.708Z,16.58
2022-10-12T08:51:08.416Z,16.59
2022-10-12T08:54:13.926Z,16.31
2022-10-12T08:56:50.245Z,16.27
2022-10-12T08:59:33.324Z,16.41
2022-10-12T09:02:38.945Z,16.53
2022-10-12T09:09:16.076Z,16.63
2022-10-12T09:12:07.360Z,16.64
2022-10-12T09:14:37.117Z,16.62
2022-10-12T09:17:22.803Z,16.75
2022-10-12T09:20:02.347Z,16.71
2022-10-12T09:22:39.410Z,16.68
2022-10-12T09:25:16.807Z,16.60
2022-10-12T09:27:56.095Z,16.57
2022-10-12T09:30:29.864Z,16.57
2022-10-12T09:33:28.628Z,16.53
2022-10-12T09:36:00.443Z,16.53
2022-10-12T09:38:38.147Z,16.61
2022-10-12T09:41:37.736Z,16.59
2022-10-12T09:44:14.209Z,16.64
2022-10-12T09:46:56.042Z,16.65
2022-10-12T09:49:55.305Z,16.61
2022-10-12T09:52:30.146Z,16.63
2022-10-12T09:55:11.906Z,16.43
2022-10-12T09:58:21.764Z,16.55
2022-10-12T10:01:23.008Z,16.65
2022-10-12T10:04:10.372Z,16.62
2022-10-12T10:09:37.173Z,16.68
2022-10-12T10:12:26.106Z,16.78
2022-10-12T10:15:11.664Z,16.86
2022-10-12T10:17:39.012Z,16.87
2022-10-12T10:20:50.441Z,16.78
2022-10-12T10:23:57.204Z,16.95
2022-10-12T10:26:25.871Z,17.14
2022-10-12T10:29:32.874Z,17.27
2022-10-12T10:32:36.713Z,17.44
2022-10-12T10:35:16.056Z,17.56
2022-10-12T10:37:57.766Z,17.67
2022-10-12T10:40:35.717Z,17.80
2022-10-12T10:43:26.568Z,17.78
2022-10-12T10:46:09.301Z,17.66
2022-10-12T10:49:04.683Z,17.84
2022-10-12T10:51:49.575Z,17.76
2022-10-12T10:54:32.086Z,17.73
2022-10-12T10:57:33.354Z,17.85
2022-10-12T11:00:38.049Z,18.02
2022-10-12T11:03:25.452Z,18.07
2022-10-12T11:06:17.835Z,18.12
2022-10-12T11:08:46.452Z,18.06
2022-10-12T11:11:30.474Z,18.00
2022-10-12T11:14:07.032Z,18.05
2022-10-12T11:16:43.497Z,18.08
2022-10-12T11:19:51.642Z,18.17
2022-10-12T11:22:40.476Z,18.19
2022-10-12T11:25:19.878Z,18.20
2022-10-12T11:27:56.593Z,18.21
2022-10-12T11:30:40.122Z,18.25
2022-10-12T11:33:27.443Z,18.25
2022-10-12T11:36:07.046Z,18.06
2022-10-12T11:38:47.156Z,18.11
2022-10-12T11:41:37.955Z,18.33
2022-10-12T11:44:19.181Z,18.24
2022-10-12T11:47:06.631Z,18.25
2022-10-12T11:49:59.874Z,18.30
2022-10-12T11:52:49.303Z,18.47
2022-10-12T11:55:45.218Z,18.74
2022-10-12T11:58:55.980Z,18.73
2022-10-12T12:01:51.381Z,18.69
2022-10-12T12:04:47.521Z,18.82
2022-10-12T12:07:31.344Z,18.91
2022-10-12T12:10:30.781Z,18.94
2022-10-12T12:13:23.520Z,18.93
2022-10-12T12:19:13.312Z,19.06
2022-10-12T12:22:18.212Z,19.13
2022-10-12T12:25:07.979Z,19.20
2022-10-12T12:27:48.585Z,19.23
2022-10-12T12:30:51.237Z,19.27
2022-10-12T12:33:27.874Z,19.23
2022-10-12T12:38:57.654Z,19.09
2022-10-12T12:42:01.314Z,19.09
2022-10-12T12:47:46.549Z,19.06
2022-10-12T12:50:37.879Z,19.07
2022-10-12T12:53:21.985Z,19.08
2022-10-12T12:56:18.326Z,19.15
2022-10-12T12:58:58.341Z,18.96
2022-10-12T13:01:48.121Z,18.69
2022-10-12T13:04:53.851Z,18.49
2022-10-12T13:07:49.088Z,18.53
2022-10-12T13:10:33.470Z,18.64
2022-10-12T13:13:38.868Z,18.70
2022-10-12T13:19:38.050Z,18.53
2022-10-12T13:22:23.717Z,18.46
2022-10-12T13:25:02.652Z,18.48
2022-10-12T13:27:52.061Z,18.48
2022-10-12T13:31:00.335Z,18.22
2022-10-12T13:33:47.116Z,18.34
2022-10-12T13:36:34.970Z,18.27
2022-10-12T13:39:43.302Z,18.12
2022-10-12T13:42:27.995Z,18.14
2022-10-12T13:45:03.156Z,17.95
2022-10-12T13:47:49.921Z,18.00
2022-10-12T13:50:24.513Z,18.04
2022-10-12T13:53:00.065Z,18.06
2022-10-12T13:55:42.885Z,18.09
2022-10-12T13:58:31.666Z,18.05
2022-10-12T14:01:14.568Z,18.09
2022-10-12T14:03:50.284Z,18.03
2022-10-12T14:06:39.074Z,17.91
2022-10-12T14:09:38.053Z,17.90
2022-10-12T14:12:11.679Z,17.90
2022-10-12T14:14:51.195Z,17.60
2022-10-12T14:17:29.732Z,17.75
2022-10-12T14:20:16.421Z,17.67
2022-10-12T14:22:49.735Z,17.52
2022-10-12T14:25:30.912Z,17.57
2022-10-12T14:28:32.258Z,17.37
2022-10-12T14:31:17.079Z,17.43
2022-10-12T14:33:44.519Z,17.53
2022-10-12T14:36:38.879Z,17.46
2022-10-12T14:39:21.666Z,17.45
2022-10-12T14:41:51.897Z,17.41
2022-10-12T14:44:31.101Z,17.37
2022-10-12T14:47:31.779Z,17.29
2022-10-12T14:50:12.836Z,17.23
2022-10-12T14:52:54.415Z,17.35
2022-10-12T14:55:33.493Z,17.24
2022-10-12T14:58:16.586Z,17.25
2022-10-12T15:00:51.773Z,17.23
2022-10-12T15:03:22.398Z,17.21
2022-10-12T15:06:03.225Z,17.19
2022-10-12T15:08:44.001Z,17.11
2022-10-12T15:11:32.086Z,17.04
2022-10-12T15:14:17.793Z,16.97
2022-10-12T15:16:58.737Z,16.85
2022-10-12T15:19:47.040Z,16.77
2022-10-12T15:22:46.739Z,16.56
2022-10-12T15:25:48.670Z,16.52
2022-10-12T15:28:23.687Z,16.28
2022-10-12T15:31:23.314Z,16.26
2022-10-12T15:34:13.368Z,16.25
2022-10-12T15:36:59.157Z,16.19
2022-10-12T15:39:55.548Z,16.14
2022-10-12T15:42:38.724Z,16.06
2022-10-12T15:45:38.121Z,15.98
2022-10-12T15:48:19.476Z,15.89
2022-10-12T15:51:18.551Z,15.75
2022-10-12T15:53:58.072Z,15.67
2022-10-12T15:56:28.098Z,15.56
2022-10-12T15:59:08.978Z,15.46
2022-10-12T16:01:50.369Z,15.36
2022-10-12T16:04:43.168Z,15.28
2022-10-12T16:07:49.720Z,15.14
2022-10-12T16:10:25.412Z,15.01
2022-10-12T16:13:04.309Z,14.90
2022-10-12T16:15:44.463Z,14.79
2022-10-12T16:18:13.731Z,14.67
2022-10-12T16:20:53.569Z,14.59
2022-10-12T16:23:46.985Z,14.48
2022-10-12T16:26:25.535Z,14.40
2022-10-12T16:29:03.518Z,14.30
2022-10-12T16:34:20.488Z,14.07
2022-10-12T16:40:08.464Z,13.85
2022-10-12T16:42:42.304Z,13.79
2022-10-12T16:45:29.238Z,13.75
2022-10-12T16:48:11.062Z,13.68
2022-10-12T16:50:50.847Z,13.60
2022-10-12T16:53:27.987Z,13.46
2022-10-12T16:56:02.480Z,13.43
2022-10-12T16:58:48.013Z,13.36
2022-10-12T17:01:25.361Z,13.27
2022-10-12T17:04:06.805Z,13.21
2022-10-12T17:06:45.822Z,13.14
2022-10-12T17:09:22.300Z,13.02
2022-10-12T17:11:54.129Z,12.92
2022-10-12T17:14:38.113Z,12.88
2022-10-12T17:17:19.813Z,12.74
2022-10-12T17:19:55.274Z,12.74
2022-10-12T17:22:51.881Z,12.64
2022-10-12T17:25:30.912Z,12.57
2022-10-12T17:28:14.475Z,12.38
2022-10-12T17:30:59.027Z,12.33
2022-10-12T17:33:42.843Z,12.33
2022-10-12T17:39:33.821Z,12.21
2022-10-12T17:42:11.001Z,12.17
2022-10-12T17:44:57.056Z,12.09
2022-10-12T17:47:32.142Z,12.02
2022-10-12T17:50:06.072Z,11.96
2022-10-12T17:52:41.970Z,11.92
2022-10-12T17:55:36.541Z,11.91
2022-10-12T17:58:22.843Z,11.88
2022-10-12T18:01:14.034Z,11.82
2022-10-12T18:03:56.073Z,11.79
2022-10-12T18:06:31.238Z,11.71
2022-10-12T18:09:04.880Z,11.68
2022-10-12T18:11:55.034Z,11.62
2022-10-12T18:14:38.932Z,11.55
2022-10-12T18:17:20.681Z,11.48
2022-10-12T18:20:03.019Z,11.43
2022-10-12T18:22:37.034Z,11.40
2022-10-12T18:25:21.550Z,11.33
2022-10-12T18:27:56.893Z,11.33
2022-10-12T18:30:42.455Z,11.31
2022-10-12T18:36:19.612Z,11.26
2022-10-12T18:39:03.581Z,11.25
2022-10-12T18:41:43.027Z,11.15
2022-10-12T18:44:15.711Z,11.20
2022-10-12T18:46:57.011Z,11.21
2022-10-12T18:49:47.357Z,11.21
2022-10-12T18:52:34.465Z,11.21
2022-10-12T18:55:18.592Z,11.17
2022-10-12T18:57:55.718Z,11.23
2022-10-12T19:00:39.988Z,11.23
2022-10-12T19:03:25.001Z,11.23
2022-10-12T19:06:13.194Z,11.23
2022-10-12T19:08:46.543Z,11.22
2022-10-12T19:11:30.092Z,11.25
2022-10-12T19:14:09.022Z,11.24
2022-10-12T19:16:55.116Z,11.19
2022-10-12T19:19:34.036Z,11.19
2022-10-12T19:22:13.062Z,11.20
2022-10-12T19:24:54.924Z,11.16
2022-10-12T19:27:29.194Z,11.18
2022-10-12T19:30:08.638Z,11.16
2022-10-12T19:32:51.369Z,11.17
2022-10-12T19:35:41.452Z,11.15
2022-10-12T19:38:16.410Z,11.16
2022-10-12T19:40:54.576Z,11.12
2022-10-12T19:43:33.045Z,11.10
2022-10-12T19:46:12.017Z,11.07
2022-10-12T19:49:08.671Z,11.04
2022-10-12T19:51:45.332Z,11.00
2022-10-12T19:54:26.499Z,10.97
2022-10-12T19:57:10.034Z,10.94
2022-10-12T19:59:48.039Z,10.90
2022-10-12T20:02:30.361Z,10.85
2022-10-12T20:05:14.458Z,10.82
2022-10-12T20:07:55.344Z,10.77
2022-10-12T20:10:43.210Z,10.72
2022-10-12T20:13:18.684Z,10.72
2022-10-12T20:16:00.239Z,10.71
2022-10-12T20:18:39.054Z,10.70
2022-10-12T20:21:18.471Z,10.70
2022-10-12T20:23:58.988Z,10.67
2022-10-12T20:26:40.167Z,10.74
2022-10-12T20:29:16.581Z,10.67
2022-10-12T20:32:00.649Z,10.63
2022-10-12T20:34:33.144Z,10.60
2022-10-12T20:37:19.714Z,10.61
2022-10-12T20:39:55.494Z,10.60
2022-10-12T20:42:35.833Z,10.62
2022-10-12T20:45:09.644Z,10.61
2022-10-12T20:47:50.262Z,10.64
2022-10-12T20:50:27.866Z,10.64
2022-10-12T20:53:10.616Z,10.63
2022-10-12T20:58:53.991Z,10.62
2022-10-12T21:01:38.137Z,10.64
2022-10-12T21:04:14.025Z,10.64
2022-10-12T21:06:51.698Z,10.67
2022-10-12T21:09:30.014Z,10.64
2022-10-12T21:12:06.745Z,10.64
2022-10-12T21:14:43.270Z,10.61
2022-10-12T21:17:28.418Z,10.60
2022-10-12T21:20:08.908Z,10.60
2022-10-12T21:22:53.268Z,10.57
2022-10-12T21:25:36.685Z,10.56
2022-10-12T21:28:18.377Z,10.53
2022-10-12T21:30:58.976Z,10.55
2022-10-12T21:33:43.102Z,10.51
2022-10-12T21:36:21.305Z,10.49
2022-10-12T21:38:56.468Z,10.46
2022-10-12T21:41:37.269Z,10.40
2022-10-12T21:44:18.848Z,10.37
2022-10-12T21:46:56.864Z,10.33
2022-10-12T21:49:31.366Z,10.28
2022-10-12T21:52:08.465Z,10.24
2022-10-12T21:54:45.402Z,10.21
2022-10-12T21:57:22.194Z,10.18
2022-10-12T21:59:59.847Z,10.17
2022-10-12T22:02:36.452Z,10.10
2022-10-12T22:05:14.611Z,10.09
2022-10-12T22:07:49.785Z,10.05
2022-10-12T22:10:30.856Z,10.02
2022-10-12T22:13:12.998Z,10.02
2022-10-12T22:16:08.455Z,9.98
2022-10-12T22:18:44.114Z,10.00
2022-10-12T22:21:25.082Z,9.94
2022-10-12T22:24:05.508Z,9.92
2022-10-12T22:26:52.169Z,9.90
2022-10-12T22:29:28.793Z,9.92
2022-10-12T22:32:09.571Z,9.90
2022-10-12T22:34:44.875Z,9.87
2022-10-12T22:37:23.115Z,9.83
2022-10-12T22:40:09.365Z,9.78
2022-10-12T22:42:50.480Z,9.74
2022-10-12T22:45:28.067Z,9.69
2022-10-12T22:48:14.853Z,9.70
2022-10-12T22:50:53.377Z,9.68
2022-10-12T22:53:26.919Z,9.62
2022-10-12T22:56:14.510Z,9.58
2022-10-12T22:58:45.465Z,9.54
2022-10-12T23:01:17.905Z,9.45
2022-10-12T23:03:47.762Z,9.51
2022-10-12T23:06:23.385Z,9.49
2022-10-12T23:09:10.482Z,9.49
2022-10-12T23:11:51.151Z,9.40
2022-10-12T23:14:28.376Z,9.32
2022-10-12T23:17:03.498Z,9.28
2022-10-12T23:19:33.192Z,9.23
2022-10-12T23:22:15.384Z,9.19
2022-10-12T23:24:55.895Z,9.13
2022-10-12T23:27:31.332Z,9.08
2022-10-12T23:30:16.956Z,9.07
2022-10-12T23:33:02.729Z,8.99
2022-10-12T23:35:38.969Z,8.91
2022-10-12T23:38:15.999Z,8.84
2022-10-12T23:41:00.662Z,8.75
2022-10-12T23:43:40.025Z,8.76
2022-10-12T23:46:15.589Z,8.71
2022-10-12T23:48:53.687Z,8.67
2022-10-12T23:51:32.179Z,8.62
2022-10-12T23:54:04.043Z,8.61
2022-10-12T23:56:43.200Z,8.51
2022-10-12T23:59:21.184Z,8.46
